createdAt,value
2023-12-08T00:03:54.765Z,96.43
2023-12-08T00:09:02.781Z,96.49
2023-12-08T00:14:10.407Z,96.49
2023-12-08T00:19:17.802Z,96.61
2023-12-08T00:24:25.866Z,96.44
2023-12-08T00:29:34.040Z,96.46
2023-12-08T00:34:42.226Z,96.54
2023-12-08T00:39:49.624Z,96.42
2023-12-08T00:44:57.061Z,96.49
2023-12-08T00:50:06.656Z,96.46
2023-12-08T00:55:14.374Z,96.61
2023-12-08T01:00:22.552Z,96.55
2023-12-08T01:05:30.423Z,96.55
2023-12-08T01:10:37.743Z,96.68
2023-12-08T01:15:45.249Z,96.67
2023-12-08T01:20:53.371Z,96.73
2023-12-08T01:26:03.117Z,96.71
2023-12-08T01:31:10.525Z,96.81
2023-12-08T01:36:39.354Z,96.79
2023-12-08T01:41:45.748Z,96.68
2023-12-08T01:46:54.699Z,96.83
2023-12-08T01:52:04.265Z,96.77
2023-12-08T01:57:12.168Z,96.79
2023-12-08T02:02:19.961Z,96.83
2023-12-08T02:07:28.799Z,96.74
2023-12-08T02:12:36.782Z,96.74
2023-12-08T02:17:44.891Z,96.71
2023-12-08T02:22:52.652Z,96.80
2023-12-08T02:28:00.284Z,96.79
2023-12-08T02:33:14.678Z,96.87
2023-12-08T02:38:26.129Z,96.66
2023-12-08T02:43:33.516Z,96.75
2023-12-08T02:48:40.944Z,96.67
2023-12-08T02:53:48.447Z,96.86
2023-12-08T02:58:56.958Z,96.84
2023-12-08T03:04:04.389Z,96.92
2023-12-08T03:09:11.914Z,96.87
2023-12-08T03:14:20.818Z,96.71
2023-12-08T03:19:28.292Z,96.95
2023-12-08T03:24:35.708Z,96.86
2023-12-08T03:29:45.982Z,96.88
2023-12-08T03:34:53.372Z,96.90
2023-12-08T03:40:00.650Z,96.92
2023-12-08T03:45:09.267Z,96.99
2023-12-08T03:50:16.782Z,96.99
2023-12-08T03:55:24.093Z,97.03
2023-12-08T04:00:31.483Z,97.02
2023-12-08T04:05:39.008Z,96.96
2023-12-08T04:10:47.079Z,96.78
2023-12-08T04:15:54.481Z,96.92
2023-12-08T04:21:01.929Z,96.95
2023-12-08T04:26:11.411Z,96.82
2023-12-08T04:31:18.756Z,96.91
2023-12-08T04:36:26.058Z,96.84
2023-12-08T04:41:33.559Z,96.87
2023-12-08T04:46:41.285Z,96.96
2023-12-08T04:51:49.331Z,96.89
2023-12-08T04:56:56.833Z,96.98
2023-12-08T05:02:04.165Z,96.88
2023-12-08T05:07:11.865Z,96.95
2023-12-08T05:12:19.583Z,96.69
2023-12-08T05:17:27.143Z,96.73
2023-12-08T05:22:37.458Z,96.81
2023-12-08T05:27:45.218Z,96.95
2023-12-08T05:32:52.720Z,96.91
2023-12-08T05:38:00.239Z,96.83
2023-12-08T05:43:07.541Z,96.80
2023-12-08T05:48:15.152Z,96.86
2023-12-08T05:53:23.797Z,96.76
2023-12-08T05:58:31.125Z,96.95
2023-12-08T06:03:38.430Z,96.81
2023-12-08T06:08:45.687Z,96.88
2023-12-08T06:13:53.419Z,96.96
2023-12-08T06:19:01.091Z,97.24
2023-12-08T06:24:08.704Z,97.20
2023-12-08T06:29:16.059Z,97.24
2023-12-08T06:34:23.431Z,97.05
2023-12-08T06:39:30.776Z,97.11
2023-12-08T06:44:38.011Z,97.14
2023-12-08T06:49:45.832Z,97.25
2023-12-08T06:54:53.617Z,97.30
2023-12-08T07:00:01.798Z,97.37
2023-12-08T07:05:10.754Z,97.39
2023-12-08T07:10:18.196Z,97.37
2023-12-08T07:15:26.009Z,97.48
2023-12-08T07:20:35.618Z,97.53
2023-12-08T07:25:42.954Z,97.46
2023-12-08T07:30:50.311Z,97.65
2023-12-08T07:35:58.353Z,97.64
2023-12-08T07:41:06.041Z,97.59
2023-12-08T07:46:13.549Z,97.68
2023-12-08T07:51:21.384Z,97.70
2023-12-08T07:56:28.831Z,97.67
2023-12-08T08:01:36.683Z,97.74
2023-12-08T08:06:43.998Z,97.67
2023-12-08T08:11:51.468Z,97.67
2023-12-08T08:16:58.899Z,97.82
2023-12-08T08:22:28.807Z,97.69
2023-12-08T08:27:34.930Z,97.60
2023-12-08T08:32:42.472Z,97.58
2023-12-08T08:37:49.795Z,97.50
2023-12-08T08:42:57.374Z,97.55
2023-12-08T08:48:06.479Z,97.49
2023-12-08T08:53:13.867Z,97.39
2023-12-08T08:58:21.244Z,97.55
2023-12-08T09:03:28.679Z,97.60
2023-12-08T09:08:36.186Z,97.55
2023-12-08T09:13:43.501Z,97.29
2023-12-08T09:18:50.959Z,97.39
2023-12-08T09:23:58.498Z,97.40
2023-12-08T09:29:06.218Z,97.37
2023-12-08T09:34:13.873Z,97.33
2023-12-08T09:39:21.489Z,97.17
2023-12-08T09:44:31.574Z,97.11
2023-12-08T09:49:43.908Z,97.16
2023-12-08T09:54:51.248Z,97.16
2023-12-08T10:00:01.646Z,96.75
2023-12-08T10:05:13.267Z,96.87
2023-12-08T10:10:21.368Z,96.87
2023-12-08T10:15:29.915Z,96.80
2023-12-08T10:20:37.281Z,96.45
2023-12-08T10:25:45.308Z,96.09
2023-12-08T10:30:54.769Z,95.99
2023-12-08T10:36:02.419Z,95.40
2023-12-08T10:41:12.889Z,95.68
2023-12-08T10:46:21.901Z,95.52
2023-12-08T10:51:29.904Z,95.23
2023-12-08T10:56:37.318Z,94.96
2023-12-08T11:01:47.305Z,95.18
2023-12-08T11:07:04.018Z,95.19
2023-12-08T11:12:15.661Z,94.80
2023-12-08T11:17:32.599Z,94.56
2023-12-08T11:22:40.113Z,94.60
2023-12-08T11:27:59.584Z,94.46
2023-12-08T11:33:14.601Z,94.64
2023-12-08T11:38:30.601Z,94.32
2023-12-08T11:43:38.080Z,94.25
2023-12-08T11:48:46.377Z,94.34
2023-12-08T11:53:57.710Z,94.53
2023-12-08T11:59:08.135Z,94.16
2023-12-08T12:04:16.012Z,94.37
2023-12-08T12:09:23.975Z,94.13
2023-12-08T12:14:33.728Z,94.18
2023-12-08T12:19:41.509Z,94.10
2023-12-08T12:24:49.212Z,93.82
2023-12-08T12:29:56.745Z,93.88
2023-12-08T12:35:04.388Z,93.97
2023-12-08T12:40:14.881Z,93.96
2023-12-08T12:45:31.379Z,93.67
2023-12-08T12:50:50.855Z,93.80
2023-12-08T12:56:09.443Z,93.66
2023-12-08T13:01:17.317Z,93.84
2023-12-08T13:06:31.523Z,93.88
2023-12-08T13:11:39.124Z,94.00
2023-12-08T13:16:46.434Z,94.07
2023-12-08T13:21:53.696Z,94.12
2023-12-08T13:27:01.105Z,94.19
2023-12-08T13:32:09.156Z,94.09
2023-12-08T13:37:16.576Z,94.14
2023-12-08T13:42:24.460Z,94.10
2023-12-08T13:47:32.395Z,94.08
2023-12-08T13:52:40.307Z,94.11
2023-12-08T13:57:47.911Z,93.92
2023-12-08T14:02:55.379Z,94.02
2023-12-08T14:08:02.926Z,94.15
2023-12-08T14:13:10.236Z,93.89
2023-12-08T14:18:17.779Z,93.89
2023-12-08T14:23:25.462Z,93.80
2023-12-08T14:28:32.911Z,93.94
2023-12-08T14:33:40.413Z,93.79
2023-12-08T14:38:48.568Z,93.58
2023-12-08T14:43:55.950Z,93.80
2023-12-08T14:49:05.279Z,93.78
2023-12-08T14:54:14.113Z,93.68
2023-12-08T14:59:23.424Z,93.83
2023-12-08T15:04:31.043Z,93.64
2023-12-08T15:09:38.452Z,93.63
2023-12-08T15:14:45.723Z,93.43
2023-12-08T15:19:55.381Z,93.40
2023-12-08T15:25:03.580Z,93.45
2023-12-08T15:30:12.977Z,93.62
2023-12-08T15:35:21.320Z,93.69
2023-12-08T15:40:28.833Z,93.92
2023-12-08T15:45:36.123Z,93.84
2023-12-08T15:50:43.742Z,93.95
2023-12-08T15:55:51.288Z,94.03
2023-12-08T16:00:59.298Z,93.99
2023-12-08T16:06:14.035Z,94.09
2023-12-08T16:11:28.631Z,94.26
2023-12-08T16:16:35.968Z,94.63
2023-12-08T16:21:43.526Z,94.52
2023-12-08T16:26:50.891Z,94.55
2023-12-08T16:31:58.551Z,94.44
2023-12-08T16:37:06.686Z,94.47
2023-12-08T16:42:14.146Z,94.59
2023-12-08T16:47:22.008Z,94.59
2023-12-08T16:52:30.215Z,94.62
2023-12-08T16:57:38.555Z,94.67
2023-12-08T17:02:46.118Z,94.77
2023-12-08T17:07:53.464Z,94.77
2023-12-08T17:13:00.798Z,94.84
2023-12-08T17:18:08.493Z,94.96
2023-12-08T17:23:16.391Z,95.00
2023-12-08T17:28:23.737Z,95.16
2023-12-08T17:33:31.257Z,95.19
2023-12-08T17:38:38.664Z,95.16
2023-12-08T17:43:46.040Z,95.24
2023-12-08T17:48:53.910Z,95.10
2023-12-08T17:54:01.321Z,95.05
2023-12-08T17:59:08.608Z,95.06
2023-12-08T18:04:15.922Z,95.17
2023-12-08T18:09:23.430Z,95.22
2023-12-08T18:14:30.857Z,95.31
2023-12-08T18:19:38.328Z,95.28
2023-12-08T18:24:45.708Z,95.42
2023-12-08T18:29:54.739Z,95.32
2023-12-08T18:35:02.192Z,95.26
2023-12-08T18:40:12.410Z,95.22
2023-12-08T18:45:20.120Z,95.30
2023-12-08T18:50:27.706Z,95.25
2023-12-08T18:55:35.062Z,95.21
2023-12-08T19:00:42.374Z,95.17
2023-12-08T19:05:52.430Z,95.19
2023-12-08T19:10:59.841Z,95.22
2023-12-08T19:16:07.663Z,95.31
2023-12-08T19:21:15.720Z,95.29
2023-12-08T19:26:23.112Z,95.24
2023-12-08T19:31:30.601Z,95.38
2023-12-08T19:36:38.141Z,95.29
2023-12-08T19:41:45.544Z,95.12
2023-12-08T19:46:54.867Z,95.09
2023-12-08T19:52:02.286Z,95.20
2023-12-08T19:57:11.546Z,95.16
2023-12-08T20:02:19.088Z,95.14
2023-12-08T20:07:26.688Z,95.05
2023-12-08T20:12:34.463Z,95.01
2023-12-08T20:17:41.801Z,95.00
2023-12-08T20:22:49.269Z,94.85
2023-12-08T20:27:56.762Z,94.90
2023-12-08T20:33:04.813Z,94.94
2023-12-08T20:38:12.352Z,94.75
2023-12-08T20:43:23.894Z,94.77
2023-12-08T20:48:31.398Z,94.85
2023-12-08T20:53:38.779Z,94.73
2023-12-08T20:58:46.373Z,94.79
2023-12-08T21:03:54.121Z,94.75
2023-12-08T21:09:02.368Z,94.77
2023-12-08T21:14:09.737Z,94.91
2023-12-08T21:19:18.044Z,94.85
2023-12-08T21:24:27.212Z,94.65
2023-12-08T21:29:34.656Z,94.60
2023-12-08T21:34:42.142Z,94.51
2023-12-08T21:39:49.451Z,94.58
2023-12-08T21:44:56.847Z,94.56
2023-12-08T21:50:05.214Z,94.58
2023-12-08T21:55:12.906Z,94.62
2023-12-08T22:00:21.263Z,94.65
2023-12-08T22:05:29.689Z,94.60
2023-12-08T22:10:37.046Z,94.72
2023-12-08T22:15:44.481Z,94.61
2023-12-08T22:20:51.869Z,94.69
2023-12-08T22:25:59.265Z,94.60
2023-12-08T22:31:08.057Z,94.61
2023-12-08T22:36:15.708Z,94.66
2023-12-08T22:41:23.117Z,94.55
2023-12-08T22:46:30.439Z,94.56
2023-12-08T22:51:48.573Z,94.56
2023-12-08T22:57:05.313Z,94.49
2023-12-08T23:02:12.675Z,94.41
2023-12-08T23:07:20.001Z,94.40
2023-12-08T23:12:27.439Z,94.37
2023-12-08T23:17:37.818Z,94.34
2023-12-08T23:22:45.147Z,94.24
2023-12-08T23:27:52.665Z,94.31
2023-12-08T23:33:02.603Z,94.28
2023-12-08T23:38:10.137Z,94.09
2023-12-08T23:43:17.737Z,94.22
2023-12-08T23:48:25.146Z,94.16
2023-12-08T23:53:32.622Z,94.12
2023-12-08T23:58:39.940Z,94.20
